createdAt,value
2024-02-05T00:01:41.660Z,14.15
2024-02-05T00:04:31.708Z,13.75
2024-02-05T00:07:21.538Z,16.30
2024-02-05T00:10:11.757Z,19.90
2024-02-05T00:13:01.467Z,14.15
2024-02-05T00:15:52.458Z,12.55
2024-02-05T00:18:42.619Z,14.00
2024-02-05T00:21:32.506Z,11.93
2024-02-05T00:24:21.835Z,12.88
2024-02-05T00:27:11.219Z,15.82
2024-02-05T00:30:00.672Z,13.70
2024-02-05T00:32:51.733Z,10.45
2024-02-05T00:35:41.033Z,12.70
2024-02-05T00:38:30.609Z,17.67
2024-02-05T00:41:19.870Z,15.52
2024-02-05T00:44:09.161Z,14.50
2024-02-05T00:46:58.521Z,15.55
2024-02-05T00:49:49.447Z,16.13
2024-02-05T00:52:39.094Z,15.18
2024-02-05T00:55:29.019Z,12.65
2024-02-05T00:58:18.685Z,19.27
2024-02-05T01:01:08.460Z,11.20
2024-02-05T01:03:58.143Z,14.82
2024-02-05T01:06:49.057Z,17.05
2024-02-05T01:09:38.837Z,14.20
2024-02-05T01:12:29.208Z,12.70
2024-02-05T01:15:18.580Z,11.10
2024-02-05T01:18:08.207Z,15.25
2024-02-05T01:21:00.455Z,20.65
2024-02-05T01:23:51.198Z,12.03
2024-02-05T01:26:40.897Z,17.45
2024-02-05T01:29:30.525Z,10.73
2024-02-05T01:32:19.904Z,12.48
2024-02-05T01:35:10.409Z,10.27
2024-02-05T01:37:59.790Z,13.68
2024-02-05T01:40:50.630Z,13.20
2024-02-05T01:43:40.055Z,8.60
2024-02-05T01:46:33.951Z,11.77
2024-02-05T01:49:25.002Z,11.27
2024-02-05T01:52:21.030Z,13.80
2024-02-05T01:55:13.754Z,21.85
2024-02-05T01:58:05.039Z,12.02
2024-02-05T02:00:57.019Z,14.55
2024-02-05T02:03:49.170Z,11.88
2024-02-05T02:06:40.190Z,7.10
2024-02-05T02:09:29.579Z,11.52
2024-02-05T02:12:19.189Z,16.30
2024-02-05T02:15:10.993Z,11.32
2024-02-05T02:18:04.647Z,12.88
2024-02-05T02:20:55.100Z,16.55
2024-02-05T02:23:46.519Z,16.38
2024-02-05T02:26:36.844Z,10.75
2024-02-05T02:29:26.309Z,13.80
2024-02-05T02:32:28.685Z,17.80
2024-02-05T02:35:30.785Z,12.43
2024-02-05T02:38:24.676Z,13.70
2024-02-05T02:41:21.506Z,16.75
2024-02-05T02:44:11.231Z,7.00
2024-02-05T02:47:05.201Z,9.50
2024-02-05T02:49:56.006Z,13.55
2024-02-05T02:52:45.413Z,10.57
2024-02-05T02:55:34.982Z,11.60
2024-02-05T02:58:25.787Z,5.00
2024-02-05T03:01:15.740Z,6.97
2024-02-05T03:04:05.411Z,13.95
2024-02-05T03:06:54.973Z,10.95
2024-02-05T03:09:44.381Z,9.82
2024-02-05T03:12:33.791Z,11.70
2024-02-05T03:15:24.426Z,12.10
2024-02-05T03:18:14.642Z,7.95
2024-02-05T03:21:04.150Z,9.93
2024-02-05T03:23:53.568Z,6.35
2024-02-05T03:26:42.833Z,11.20
2024-02-05T03:29:32.540Z,8.95
2024-02-05T03:32:23.169Z,8.35
2024-02-05T03:35:13.937Z,12.43
2024-02-05T03:38:03.316Z,8.75
2024-02-05T03:40:52.596Z,13.13
2024-02-05T03:43:43.284Z,9.25
2024-02-05T03:46:32.601Z,6.05
2024-02-05T03:49:23.406Z,9.40
2024-02-05T03:52:12.924Z,7.70
2024-02-05T03:55:02.375Z,11.55
2024-02-05T03:58:01.203Z,8.02
2024-02-05T04:00:51.273Z,6.22
2024-02-05T04:03:41.165Z,8.80
2024-02-05T04:06:32.105Z,10.50
2024-02-05T04:09:21.561Z,10.80
2024-02-05T04:12:10.970Z,9.80
2024-02-05T04:15:00.294Z,8.90
2024-02-05T04:17:49.654Z,10.60
2024-02-05T04:20:39.047Z,8.57
2024-02-05T04:23:29.869Z,8.05
2024-02-05T04:26:19.561Z,5.30
2024-02-05T04:29:15.840Z,15.32
2024-02-05T04:32:06.088Z,10.45
2024-02-05T04:34:55.588Z,6.68
2024-02-05T04:37:45.414Z,9.98
2024-02-05T04:40:36.195Z,5.40
2024-02-05T04:43:25.521Z,15.77
2024-02-05T04:46:14.947Z,10.38
2024-02-05T04:49:04.571Z,9.85
2024-02-05T04:51:53.995Z,13.70
2024-02-05T04:54:43.571Z,8.88
2024-02-05T04:57:34.396Z,16.42
2024-02-05T05:00:24.147Z,9.77
2024-02-05T05:03:13.506Z,9.60
2024-02-05T05:06:02.889Z,7.57
2024-02-05T05:08:52.249Z,10.15
2024-02-05T05:11:41.558Z,11.13
2024-02-05T05:14:32.229Z,11.27
2024-02-05T05:17:21.663Z,10.38
2024-02-05T05:20:13.206Z,13.98
2024-02-05T05:23:02.544Z,5.72
2024-02-05T05:25:58.747Z,9.95
2024-02-05T05:28:49.055Z,12.18
2024-02-05T05:31:39.856Z,13.88
2024-02-05T05:34:29.227Z,15.82
2024-02-05T05:37:18.794Z,9.95
2024-02-05T05:40:11.252Z,11.02
2024-02-05T05:43:00.941Z,8.15
2024-02-05T05:45:50.328Z,8.65
2024-02-05T05:48:41.357Z,7.40
2024-02-05T05:51:30.743Z,9.05
2024-02-05T05:54:21.181Z,8.00
2024-02-05T05:57:10.455Z,10.35
2024-02-05T06:00:00.534Z,14.38
2024-02-05T06:02:50.664Z,9.73
2024-02-05T06:05:41.390Z,13.50
2024-02-05T06:08:30.675Z,9.63
2024-02-05T06:11:19.962Z,8.43
2024-02-05T06:14:09.354Z,9.65
2024-02-05T06:16:58.730Z,8.63
2024-02-05T06:19:48.186Z,8.55
2024-02-05T06:22:39.077Z,4.82
2024-02-05T06:25:28.538Z,7.22
2024-02-05T06:28:18.657Z,6.57
2024-02-05T06:31:08.191Z,5.35
2024-02-05T06:33:57.772Z,7.18
2024-02-05T06:36:47.298Z,2.75
2024-02-05T06:39:38.267Z,3.63
2024-02-05T06:42:27.531Z,4.07
2024-02-05T06:45:17.927Z,4.38
2024-02-05T06:48:08.630Z,4.90
2024-02-05T06:50:58.031Z,3.47
2024-02-05T06:53:47.492Z,4.18
2024-02-05T06:56:38.290Z,4.65
2024-02-05T06:59:27.546Z,4.90
2024-02-05T07:02:20.092Z,4.30
2024-02-05T07:08:01.364Z,4.15
2024-02-05T07:10:50.676Z,2.63
2024-02-05T07:13:41.506Z,7.07
2024-02-05T07:16:30.941Z,3.80
2024-02-05T07:19:20.508Z,2.97
2024-02-05T07:22:10.780Z,3.63
2024-02-05T07:25:00.834Z,3.72
2024-02-05T07:27:50.424Z,2.30
2024-02-05T07:30:41.629Z,3.17
2024-02-05T07:33:31.103Z,2.67
2024-02-05T07:36:20.969Z,6.40
2024-02-05T07:39:11.412Z,5.18
2024-02-05T07:42:00.867Z,3.42
2024-02-05T07:44:50.171Z,3.80
2024-02-05T07:47:41.012Z,3.63
2024-02-05T07:50:30.291Z,1.40
2024-02-05T07:53:19.770Z,3.40
2024-02-05T07:56:11.823Z,6.85
2024-02-05T07:59:01.204Z,2.75
2024-02-05T08:01:50.727Z,1.58
2024-02-05T08:04:42.415Z,2.25
2024-02-05T08:07:31.900Z,1.25
2024-02-05T08:10:21.458Z,3.45
2024-02-05T08:13:10.793Z,1.02
2024-02-05T08:16:00.189Z,2.65
2024-02-05T08:18:50.790Z,2.75
2024-02-05T08:21:41.668Z,4.47
2024-02-05T08:24:31.032Z,2.63
2024-02-05T08:27:20.337Z,1.63
2024-02-05T08:30:11.004Z,1.80
2024-02-05T08:33:00.807Z,2.65
2024-02-05T08:35:50.571Z,1.10
2024-02-05T08:38:42.668Z,3.45
2024-02-05T08:41:32.042Z,1.85
2024-02-05T08:44:23.575Z,2.10
2024-02-05T08:47:14.399Z,6.20
2024-02-05T08:50:04.064Z,2.08
2024-02-05T08:52:53.635Z,2.22
2024-02-05T08:55:44.381Z,4.50
2024-02-05T08:58:33.795Z,3.35
2024-02-05T09:01:23.370Z,5.45
2024-02-05T09:04:12.920Z,2.13
2024-02-05T09:07:02.440Z,1.13
2024-02-05T09:09:51.853Z,1.45
2024-02-05T09:12:42.842Z,3.90
2024-02-05T09:15:32.164Z,4.25
2024-02-05T09:18:23.629Z,2.75
2024-02-05T09:21:13.164Z,2.33
2024-02-05T09:24:02.513Z,4.22
2024-02-05T09:26:52.292Z,9.77
2024-02-05T09:29:44.993Z,1.50
2024-02-05T09:32:34.593Z,5.13
2024-02-05T09:35:24.024Z,4.78
2024-02-05T09:38:13.909Z,6.15
2024-02-05T09:41:08.050Z,3.33
2024-02-05T09:43:58.184Z,2.92
2024-02-05T09:46:51.840Z,4.93
2024-02-05T09:49:41.883Z,7.25
2024-02-05T09:52:32.196Z,4.72
2024-02-05T09:55:23.074Z,2.42
2024-02-05T09:58:13.213Z,2.70
2024-02-05T10:01:03.998Z,5.53
2024-02-05T10:03:55.928Z,5.68
2024-02-05T10:06:51.279Z,3.55
2024-02-05T10:09:42.239Z,4.40
2024-02-05T10:12:36.217Z,3.80
2024-02-05T10:15:25.654Z,5.70
2024-02-05T10:18:15.099Z,4.25
2024-02-05T10:21:06.663Z,6.45
2024-02-05T10:23:56.389Z,4.28
2024-02-05T10:26:45.763Z,4.82
2024-02-05T10:29:35.086Z,5.00
2024-02-05T10:32:24.650Z,4.85
2024-02-05T10:35:19.015Z,4.40
2024-02-05T10:38:13.631Z,5.75
2024-02-05T10:41:03.669Z,6.30
2024-02-05T10:43:53.005Z,4.60
2024-02-05T10:46:42.523Z,5.38
2024-02-05T10:49:32.800Z,4.30
2024-02-05T10:52:23.828Z,5.22
2024-02-05T10:55:15.840Z,6.13
2024-02-05T10:58:06.691Z,6.20
2024-02-05T11:01:01.506Z,6.32
2024-02-05T11:03:56.550Z,6.35
2024-02-05T11:06:50.318Z,6.00
2024-02-05T11:09:41.089Z,4.38
2024-02-05T11:12:34.075Z,3.88
2024-02-05T11:15:23.825Z,6.60
2024-02-05T11:18:17.340Z,8.82
2024-02-05T11:21:09.251Z,5.55
2024-02-05T11:23:59.666Z,5.18
2024-02-05T11:26:49.074Z,4.32
2024-02-05T11:29:45.214Z,6.72
2024-02-05T11:32:36.571Z,7.32
2024-02-05T11:35:31.241Z,6.40
2024-02-05T11:38:23.132Z,5.28
2024-02-05T11:41:12.832Z,4.88
2024-02-05T11:44:07.098Z,8.10
2024-02-05T11:46:57.778Z,8.30
2024-02-05T11:49:47.388Z,8.23
2024-02-05T11:52:40.384Z,11.15
2024-02-05T11:55:30.154Z,7.43
2024-02-05T11:58:19.622Z,8.80
2024-02-05T12:01:11.060Z,8.75
2024-02-05T12:04:02.263Z,9.75
2024-02-05T12:06:52.341Z,7.78
2024-02-05T12:09:41.738Z,7.95
2024-02-05T12:12:31.947Z,8.45
2024-02-05T12:15:23.499Z,8.23
2024-02-05T12:18:12.939Z,10.38
2024-02-05T12:21:04.471Z,5.97
2024-02-05T12:23:54.898Z,9.27
2024-02-05T12:26:44.290Z,6.55
2024-02-05T12:29:34.082Z,11.55
2024-02-05T12:32:27.905Z,17.90
2024-02-05T12:35:22.619Z,7.88
2024-02-05T12:38:13.823Z,13.07
2024-02-05T12:41:03.935Z,10.65
2024-02-05T12:43:53.748Z,11.65
2024-02-05T12:46:43.344Z,9.30
2024-02-05T12:49:33.207Z,7.70
2024-02-05T12:52:23.936Z,8.07
2024-02-05T12:55:15.064Z,8.88
2024-02-05T12:58:04.475Z,9.02
2024-02-05T13:00:54.147Z,7.60
2024-02-05T13:03:43.684Z,12.13
2024-02-05T13:06:33.252Z,8.15
2024-02-05T13:09:22.580Z,9.07
2024-02-05T13:12:14.134Z,5.85
2024-02-05T13:15:04.229Z,8.43
2024-02-05T13:17:54.137Z,8.90
2024-02-05T13:20:44.907Z,9.75
2024-02-05T13:23:34.245Z,7.55
2024-02-05T13:26:23.567Z,9.10
2024-02-05T13:29:14.340Z,8.98
2024-02-05T13:32:03.816Z,7.05
2024-02-05T13:34:53.258Z,6.28
2024-02-05T13:37:42.747Z,12.05
2024-02-05T13:40:33.233Z,11.38
2024-02-05T13:43:22.573Z,11.00
2024-02-05T13:46:13.658Z,9.05
2024-02-05T13:49:03.910Z,8.63
2024-02-05T13:51:53.427Z,13.18
2024-02-05T13:54:42.864Z,12.43
2024-02-05T13:57:32.252Z,10.77
2024-02-05T14:00:22.377Z,9.50
2024-02-05T14:03:13.174Z,15.32
2024-02-05T14:06:02.733Z,12.05
2024-02-05T14:08:52.728Z,18.80
2024-02-05T14:11:41.983Z,8.20
2024-02-05T14:14:37.081Z,13.02
2024-02-05T14:17:26.438Z,8.63
2024-02-05T14:20:17.288Z,7.80
2024-02-05T14:23:06.779Z,7.88
2024-02-05T14:25:56.038Z,11.23
2024-02-05T14:28:45.324Z,11.20
2024-02-05T14:31:34.716Z,11.25
2024-02-05T14:34:25.029Z,11.20
2024-02-05T14:37:15.880Z,12.60
2024-02-05T14:40:06.936Z,17.10
2024-02-05T14:42:56.409Z,19.63
2024-02-05T14:45:46.066Z,13.10
2024-02-05T14:48:35.862Z,14.30
2024-02-05T14:51:25.773Z,16.55
2024-02-05T14:54:16.618Z,6.63
2024-02-05T14:57:06.452Z,12.70
2024-02-05T14:59:56.218Z,12.18
2024-02-05T15:02:45.601Z,12.15
2024-02-05T15:05:35.271Z,6.68
2024-02-05T15:08:24.811Z,10.68
2024-02-05T15:11:15.565Z,11.68
2024-02-05T15:14:04.971Z,10.30
2024-02-05T15:16:54.268Z,11.35
2024-02-05T15:19:45.058Z,11.70
2024-02-05T15:22:35.396Z,11.38
2024-02-05T15:25:25.004Z,9.25
2024-02-05T15:28:15.784Z,8.65
2024-02-05T15:31:05.412Z,10.27
2024-02-05T15:33:54.875Z,11.43
2024-02-05T15:36:44.402Z,6.82
2024-02-05T15:39:33.844Z,7.50
2024-02-05T15:42:23.198Z,9.52
2024-02-05T15:45:18.024Z,13.40
2024-02-05T15:48:08.247Z,10.98
2024-02-05T15:50:58.366Z,9.93
2024-02-05T15:53:47.996Z,10.52
2024-02-05T15:56:42.583Z,10.95
2024-02-05T15:59:32.795Z,13.07
2024-02-05T16:02:23.542Z,10.90
2024-02-05T16:05:13.374Z,8.95
2024-02-05T16:08:02.899Z,8.65
2024-02-05T16:10:52.340Z,15.10
2024-02-05T16:13:41.984Z,8.73
2024-02-05T16:16:31.764Z,9.68
2024-02-05T16:19:22.723Z,11.45
2024-02-05T16:22:12.127Z,5.78
2024-02-05T16:25:01.468Z,10.25
2024-02-05T16:27:51.023Z,9.13
2024-02-05T16:30:40.456Z,11.65
2024-02-05T16:33:29.936Z,10.85
2024-02-05T16:36:20.758Z,14.13
2024-02-05T16:39:11.040Z,7.60
2024-02-05T16:42:00.430Z,7.93
2024-02-05T16:44:49.760Z,7.80
2024-02-05T16:47:39.426Z,13.43
2024-02-05T16:50:28.933Z,10.30
2024-02-05T16:53:19.887Z,7.28
2024-02-05T16:56:11.141Z,6.60
2024-02-05T16:59:00.568Z,15.82
2024-02-05T17:01:50.313Z,9.00
2024-02-05T17:04:39.896Z,4.93
2024-02-05T17:07:29.291Z,5.68
2024-02-05T17:10:20.442Z,6.20
2024-02-05T17:13:09.916Z,6.97
2024-02-05T17:15:59.490Z,3.40
2024-02-05T17:18:49.168Z,6.82
2024-02-05T17:21:43.606Z,6.97
2024-02-05T17:24:36.381Z,6.50
2024-02-05T17:27:28.149Z,7.70
2024-02-05T17:30:17.671Z,6.32
2024-02-05T17:33:07.307Z,6.30
2024-02-05T17:35:56.832Z,4.82
2024-02-05T17:38:46.122Z,5.63
2024-02-05T17:41:35.516Z,9.60
2024-02-05T17:44:26.191Z,5.07
2024-02-05T17:47:15.825Z,6.22
2024-02-05T17:50:06.071Z,4.15
2024-02-05T17:52:57.334Z,7.05
2024-02-05T17:55:46.810Z,4.93
2024-02-05T17:58:36.400Z,7.07
2024-02-05T18:01:27.239Z,8.68
2024-02-05T18:04:16.826Z,4.53
2024-02-05T18:07:06.924Z,6.63
2024-02-05T18:09:56.402Z,5.93
2024-02-05T18:12:45.943Z,6.40
2024-02-05T18:15:35.450Z,5.72
2024-02-05T18:18:26.714Z,7.30
2024-02-05T18:21:16.986Z,4.32
2024-02-05T18:24:08.286Z,5.78
2024-02-05T18:26:59.808Z,6.45
2024-02-05T18:29:49.286Z,2.95
2024-02-05T18:32:38.600Z,6.68
2024-02-05T18:35:29.590Z,6.10
2024-02-05T18:38:19.095Z,4.45
2024-02-05T18:41:10.277Z,3.92
2024-02-05T18:43:59.692Z,3.78
2024-02-05T18:46:49.070Z,4.10
2024-02-05T18:49:38.617Z,4.20
2024-02-05T18:52:29.493Z,5.22
2024-02-05T18:55:18.963Z,5.07
2024-02-05T18:58:08.444Z,5.50
2024-02-05T19:00:58.330Z,6.93
2024-02-05T19:03:47.867Z,2.80
2024-02-05T19:06:37.324Z,5.20
2024-02-05T19:09:28.695Z,4.45
2024-02-05T19:12:18.145Z,3.13
2024-02-05T19:15:08.217Z,4.10
2024-02-05T19:17:57.679Z,5.13
2024-02-05T19:20:47.102Z,4.40
2024-02-05T19:23:36.528Z,2.88
2024-02-05T19:26:27.331Z,2.80
2024-02-05T19:29:20.747Z,4.10
2024-02-05T19:32:10.667Z,4.78
2024-02-05T19:35:00.933Z,3.70
2024-02-05T19:37:51.012Z,6.68
2024-02-05T19:40:40.608Z,2.75
2024-02-05T19:43:31.543Z,2.97
2024-02-05T19:46:21.052Z,4.22
2024-02-05T19:49:10.636Z,3.45
2024-02-05T19:52:00.094Z,4.55
2024-02-05T19:54:49.554Z,2.85
2024-02-05T19:57:40.908Z,4.63
2024-02-05T20:00:31.817Z,8.82
2024-02-05T20:03:21.472Z,2.20
2024-02-05T20:06:11.010Z,2.83
2024-02-05T20:09:01.461Z,3.67
2024-02-05T20:11:50.763Z,5.78
2024-02-05T20:14:40.136Z,5.05
2024-02-05T20:17:30.896Z,2.40
2024-02-05T20:20:20.862Z,3.55
2024-02-05T20:23:10.469Z,3.90
2024-02-05T20:26:00.046Z,2.08
2024-02-05T20:28:49.395Z,3.22
2024-02-05T20:31:39.339Z,3.35
2024-02-05T20:34:31.291Z,2.53
2024-02-05T20:37:21.075Z,7.00
2024-02-05T20:40:11.328Z,3.78
2024-02-05T20:43:01.038Z,2.47
2024-02-05T20:45:51.040Z,1.52
2024-02-05T20:48:40.572Z,3.20
2024-02-05T20:51:31.549Z,2.67
2024-02-05T20:54:20.796Z,3.63
2024-02-05T20:57:10.130Z,3.47
2024-02-05T20:59:59.426Z,3.30
2024-02-05T21:02:48.777Z,3.13
2024-02-05T21:05:38.068Z,2.55
2024-02-05T21:08:29.056Z,3.25
2024-02-05T21:11:18.562Z,3.08
2024-02-05T21:14:07.997Z,5.30
2024-02-05T21:16:59.722Z,4.80
2024-02-05T21:19:49.165Z,4.38
2024-02-05T21:22:38.662Z,5.32
2024-02-05T21:25:29.502Z,3.65
2024-02-05T21:28:19.018Z,2.17
2024-02-05T21:31:08.443Z,3.50
2024-02-05T21:33:57.838Z,2.42
2024-02-05T21:36:48.566Z,3.70
2024-02-05T21:39:38.081Z,2.22
2024-02-05T21:42:28.906Z,2.75
2024-02-05T21:45:18.300Z,2.83
2024-02-05T21:48:11.549Z,3.13
2024-02-05T21:51:01.263Z,3.20
2024-02-05T21:53:50.681Z,3.28
2024-02-05T21:56:40.239Z,2.65
2024-02-05T21:59:31.007Z,2.38
2024-02-05T22:02:20.484Z,2.88
2024-02-05T22:05:10.562Z,3.03
2024-02-05T22:08:00.897Z,2.30
2024-02-05T22:10:50.205Z,2.80
2024-02-05T22:13:39.657Z,1.70
2024-02-05T22:16:30.495Z,2.75
2024-02-05T22:19:19.972Z,2.20
2024-02-05T22:22:10.258Z,2.00
2024-02-05T22:24:59.917Z,2.35
2024-02-05T22:27:49.287Z,2.22
2024-02-05T22:30:38.527Z,1.90
2024-02-05T22:33:35.238Z,5.82
2024-02-05T22:36:27.550Z,2.58
2024-02-05T22:39:16.929Z,2.40
2024-02-05T22:42:06.799Z,2.38
2024-02-05T22:44:56.292Z,2.65
2024-02-05T22:47:45.856Z,3.92
2024-02-05T22:50:36.639Z,2.28
2024-02-05T22:53:26.268Z,2.33
2024-02-05T22:56:15.714Z,3.58
2024-02-05T22:59:05.054Z,1.90
2024-02-05T23:01:54.453Z,2.22
2024-02-05T23:04:43.930Z,2.65
2024-02-05T23:07:35.278Z,2.13
2024-02-05T23:10:25.815Z,2.30
2024-02-05T23:13:15.236Z,1.50
2024-02-05T23:16:05.401Z,3.55
2024-02-05T23:18:54.897Z,3.05
2024-02-05T23:21:44.346Z,4.10
2024-02-05T23:24:35.054Z,2.45
2024-02-05T23:27:24.360Z,2.63
2024-02-05T23:30:14.859Z,2.10
2024-02-05T23:33:04.451Z,1.60
2024-02-05T23:35:54.010Z,2.08
2024-02-05T23:38:43.557Z,2.33
2024-02-05T23:41:36.180Z,2.08
2024-02-05T23:44:25.631Z,5.20
2024-02-05T23:47:15.165Z,4.97
2024-02-05T23:50:04.567Z,2.65
2024-02-05T23:52:54.115Z,1.75
2024-02-05T23:55:43.612Z,1.98
2024-02-05T23:58:35.513Z,1.70
